Time;durP1;ratioP1;P1;durP2;ratioP2;P2;SDS_P1;SDS_P2;PMS_P1;PMS_P2;Temp;Humidity;BMP_temperature;BMP_pressure;BME280_temperature;BME280_humidity;BME280_pressure;Samples;Min_cycle;Max_cycle;Signal;HPM_P1;HPM_P2
2023/09/22 00:02:00;;;;;;;5.65;2.67;;;;;;;14.43;100.00;99607.06;4949029;28;20047;-69
2023/09/22 00:04:26;;;;;;;4.80;2.53;;;;;;;14.38;100.00;99605.91;4949226;28;20091;-68
2023/09/22 00:06:51;;;;;;;6.30;2.75;;;;;;;14.37;100.00;99612.13;4967985;28;20042;-69
2023/09/22 00:09:17;;;;;;;7.28;3.10;;;;;;;14.38;100.00;99612.94;4967219;28;20045;-70
2023/09/22 00:11:42;;;;;;;3.35;2.33;;;;;;;14.31;100.00;99612.16;4956382;28;20038;-68
2023/09/22 00:14:08;;;;;;;3.72;2.42;;;;;;;14.37;100.00;99609.53;4956468;28;20035;-69
2023/09/22 00:16:34;;;;;;;5.43;2.70;;;;;;;14.37;100.00;99619.97;4967748;28;20113;-68
2023/09/22 00:19:04;;;;;;;6.25;2.85;;;;;;;14.31;100.00;99631.19;4969151;28;20520;-68
2023/09/22 00:21:31;;;;;;;5.90;2.38;;;;;;;14.33;100.00;99637.00;4949424;28;20424;-69
2023/09/22 00:23:56;;;;;;;5.22;2.80;;;;;;;14.32;100.00;99634.63;4948909;28;20034;-68
2023/09/22 00:26:22;;;;;;;6.82;2.83;;;;;;;14.25;100.00;99639.88;4957272;28;20501;-69
2023/09/22 00:28:48;;;;;;;8.77;2.60;;;;;;;14.23;100.00;99628.06;4974790;28;20509;-68
2023/09/22 00:31:13;;;;;;;8.52;2.60;;;;;;;14.23;100.00;99628.06;4953310;28;20038;-69
2023/09/22 00:33:39;;;;;;;6.80;2.50;;;;;;;14.24;100.00;99624.41;4952688;28;20560;-69
2023/09/22 00:36:05;;;;;;;7.18;2.85;;;;;;;14.26;100.00;99632.84;4965844;28;20065;-69
2023/09/22 00:38:30;;;;;;;5.28;2.72;;;;;;;14.23;100.00;99633.28;4946914;28;20112;-69
2023/09/22 00:40:56;;;;;;;4.68;2.95;;;;;;;14.17;100.00;99630.47;4956723;28;20453;-68
2023/09/22 00:43:21;;;;;;;3.80;2.55;;;;;;;14.13;100.00;99634.50;4944526;28;20045;-69
2023/09/22 00:45:52;;;;;;;5.28;2.83;;;;;;;14.10;100.00;99637.53;4951001;28;20123;-68
2023/09/22 00:48:28;;;;;;;3.97;2.33;;;;;;;14.07;100.00;99631.91;4932651;28;20046;-69
2023/09/22 00:50:55;;;;;;;2.78;2.13;;;;;;;14.06;100.00;99635.53;4948210;28;20081;-68
2023/09/22 00:53:23;;;;;;;3.67;2.47;;;;;;;14.08;100.00;99641.34;4966127;28;20078;-68
2023/09/22 00:55:51;;;;;;;6.35;2.75;;;;;;;14.09;100.00;99643.75;4945514;28;20078;-69
2023/09/22 00:58:18;;;;;;;6.22;2.60;;;;;;;14.05;100.00;99642.53;4966154;28;20041;-69
2023/09/22 01:00:49;;;;;;;4.47;2.17;;;;;;;14.01;100.00;99646.56;4945836;28;20513;-69
2023/09/22 01:03:16;;;;;;;5.10;2.17;;;;;;;14.07;100.00;99642.34;4965688;28;20035;-69
2023/09/22 01:05:42;;;;;;;6.75;2.20;;;;;;;14.00;100.00;99639.78;4967760;28;20074;-68
2023/09/22 01:08:08;;;;;;;3.80;1.80;;;;;;;13.98;100.00;99647.78;4950192;28;20046;-69
2023/09/22 01:10:38;;;;;;;6.82;2.08;;;;;;;13.95;100.00;99642.97;4938242;28;20097;-68
2023/09/22 01:13:04;;;;;;;5.53;1.90;;;;;;;13.90;100.00;99647.22;4935879;28;22063;-69
2023/09/22 01:15:33;;;;;;;3.47;1.70;;;;;;;13.90;100.00;99639.41;4973447;28;20049;-69
2023/09/22 01:18:05;;;;;;;4.60;1.52;;;;;;;13.81;100.00;99646.66;4947834;28;20493;-68
2023/09/22 01:20:32;;;;;;;7.72;2.63;;;;;;;13.88;100.00;99637.03;4936759;28;20445;-69
2023/09/22 01:22:59;;;;;;;6.25;2.10;;;;;;;13.81;100.00;99638.84;4941617;28;20045;-68
2023/09/22 01:25:24;;;;;;;3.60;1.88;;;;;;;13.89;100.00;99645.63;4955187;28;20046;-69
2023/09/22 01:27:50;;;;;;;7.18;1.90;;;;;;;13.86;100.00;99646.03;4957403;28;20046;-68
2023/09/22 01:30:17;;;;;;;7.45;1.83;;;;;;;13.67;100.00;99660.72;4950846;28;20093;-68
2023/09/22 01:32:42;;;;;;;7.43;1.90;;;;;;;13.66;100.00;99665.13;4956350;28;20467;-68
2023/09/22 01:35:08;;;;;;;5.22;2.00;;;;;;;13.59;100.00;99672.16;4956444;28;20046;-68
2023/09/22 01:37:39;;;;;;;5.18;2.45;;;;;;;13.52;100.00;99664.31;4956408;28;20041;-69
2023/09/22 01:40:05;;;;;;;7.05;2.63;;;;;;;13.46;100.00;99665.16;4971636;28;20093;-69
2023/09/22 01:42:31;;;;;;;9.65;2.17;;;;;;;13.44;100.00;99667.94;4957206;28;20034;-69
2023/09/22 01:44:56;;;;;;;7.47;2.03;;;;;;;13.43;100.00;99658.56;4940926;28;20611;-68
2023/09/22 01:47:22;;;;;;;5.30;2.30;;;;;;;13.44;100.00;99649.72;4944398;28;20039;-68
2023/09/22 01:49:47;;;;;;;3.08;1.75;;;;;;;13.42;100.00;99662.16;4958805;28;20412;-69
2023/09/22 01:52:13;;;;;;;9.75;2.50;;;;;;;13.49;100.00;99653.53;4955011;28;20039;-69
2023/09/22 01:54:38;;;;;;;5.65;2.60;;;;;;;13.43;100.00;99658.56;4940227;28;20485;-68
2023/09/22 01:57:04;;;;;;;4.93;2.10;;;;;;;13.42;100.00;99656.16;4941946;28;20035;-69
2023/09/22 01:59:29;;;;;;;7.38;2.40;;;;;;;13.41;100.00;99646.72;4961420;28;20404;-69
2023/09/22 02:01:55;;;;;;;4.75;2.53;;;;;;;13.37;100.00;99654.16;4973055;28;20026;-69
2023/09/22 02:04:20;;;;;;;8.10;2.17;;;;;;;13.29;100.00;99648.31;4955123;28;20031;-69
2023/09/22 02:06:46;;;;;;;4.38;2.15;;;;;;;13.25;100.00;99655.72;4957959;28;20034;-69
2023/09/22 02:09:11;;;;;;;5.85;2.20;;;;;;;13.19;100.00;99652.13;4959717;28;20393;-68
2023/09/22 02:11:40;;;;;;;6.82;2.35;;;;;;;13.23;100.00;99657.72;4959720;28;20555;-68
2023/09/22 02:14:07;;;;;;;2.72;1.92;;;;;;;13.18;100.00;99663.53;4958294;28;20042;-69
2023/09/22 02:16:32;;;;;;;7.20;2.17;;;;;;;13.14;100.00;99674.53;4942830;28;20173;-69
2023/09/22 02:18:59;;;;;;;5.57;2.95;;;;;;;13.15;100.00;99676.16;4940210;28;20038;-69
2023/09/22 02:21:25;;;;;;;5.70;2.40;;;;;;;13.08;100.00;99686.56;4948512;28;20706;-69
2023/09/22 02:23:50;;;;;;;6.00;2.60;;;;;;;12.98;100.00;99681.75;4972198;28;20073;-69
2023/09/22 02:26:15;;;;;;;3.30;1.92;;;;;;;12.96;100.00;99686.34;4976455;28;20532;-68
2023/09/22 02:28:41;;;;;;;4.93;2.67;;;;;;;12.93;100.00;99667.72;4973915;28;20039;-69
2023/09/22 02:31:06;;;;;;;8.25;2.13;;;;;;;12.91;100.00;99669.72;4959351;28;20050;-68
2023/09/22 02:33:32;;;;;;;3.45;2.33;;;;;;;12.84;100.00;99667.91;4971581;28;20509;-69
2023/09/22 02:35:59;;;;;;;4.53;1.92;;;;;;;12.83;100.00;99676.72;4971472;28;20038;-68
2023/09/22 02:38:25;;;;;;;3.15;1.90;;;;;;;12.83;100.00;99673.31;4954710;28;20034;-68
2023/09/22 02:40:51;;;;;;;4.47;2.35;;;;;;;12.84;100.00;99672.31;4955863;28;20042;-69
2023/09/22 02:43:16;;;;;;;5.55;1.90;;;;;;;12.82;100.00;99675.09;4953135;28;20585;-68
2023/09/22 02:45:42;;;;;;;8.73;2.63;;;;;;;12.82;100.00;99675.09;4955199;28;20057;-69
2023/09/22 02:48:08;;;;;;;5.70;2.42;;;;;;;12.77;100.00;99671.50;4956824;28;20042;-68
2023/09/22 02:50:36;;;;;;;5.85;2.45;;;;;;;12.76;100.00;99664.69;4943637;28;20070;-68
2023/09/22 02:53:04;;;;;;;4.95;2.13;;;;;;;12.71;100.00;99660.06;4942386;28;20035;-68
2023/09/22 02:55:35;;;;;;;7.45;2.33;;;;;;;12.71;100.00;99664.47;4970474;28;20062;-69
2023/09/22 02:58:01;;;;;;;17.60;3.92;;;;;;;12.69;100.00;99664.69;4954847;28;20034;-69
2023/09/22 03:00:27;;;;;;;4.93;2.50;;;;;;;12.66;100.00;99668.47;4959227;28;22101;-68
2023/09/22 03:02:53;;;;;;;7.13;2.58;;;;;;;12.66;100.00;99670.28;4954220;28;20038;-68
2023/09/22 03:05:19;;;;;;;6.18;2.03;;;;;;;12.63;100.00;99674.06;4953310;28;20042;-68
2023/09/22 03:07:48;;;;;;;5.90;2.33;;;;;;;12.70;100.00;99668.09;4935374;28;20059;-68
2023/09/22 03:10:14;;;;;;;7.32;2.35;;;;;;;12.76;100.00;99672.50;4970456;28;20058;-68
2023/09/22 03:12:39;;;;;;;9.73;2.47;;;;;;;12.67;100.00;99674.47;4953589;28;20129;-68
2023/09/22 03:15:09;;;;;;;4.60;2.65;;;;;;;12.66;100.00;99670.28;4958015;28;20043;-68
2023/09/22 03:17:36;;;;;;;6.50;2.42;;;;;;;12.64;100.00;99675.69;4942742;28;20038;-69
2023/09/22 03:20:06;;;;;;;4.72;2.78;;;;;;;12.65;100.00;99668.69;4951773;28;20088;-69
2023/09/22 03:22:34;;;;;;;9.25;2.22;;;;;;;12.61;100.00;99668.25;4958772;28;20465;-69
2023/09/22 03:25:00;;;;;;;6.60;2.70;;;;;;;12.69;100.00;99667.28;4953073;28;20066;-69
2023/09/22 03:27:25;;;;;;;6.95;2.08;;;;;;;12.64;100.00;99670.47;4953688;28;20065;-68
2023/09/22 03:29:51;;;;;;;7.20;1.80;;;;;;;12.64;100.00;99667.88;4955511;28;20039;-68
2023/09/22 03:32:18;;;;;;;6.57;1.90;;;;;;;12.65;100.00;99668.69;4968583;28;20035;-68
2023/09/22 03:34:47;;;;;;;10.57;1.52;;;;;;;12.64;100.00;99662.69;4957357;28;20436;-69
2023/09/22 03:37:13;;;;;;;4.40;1.92;;;;;;;12.63;100.00;99665.47;4957984;28;20173;-69
2023/09/22 03:39:39;;;;;;;6.22;1.73;;;;;;;12.68;100.00;99657.06;4970738;28;20042;-69
2023/09/22 03:42:06;;;;;;;7.97;1.60;;;;;;;12.71;100.00;99649.66;4960436;28;20162;-68
2023/09/22 03:44:33;;;;;;;6.40;1.70;;;;;;;12.69;100.00;99658.69;4957756;28;20054;-68
2023/09/22 03:46:59;;;;;;;5.68;1.30;;;;;;;12.65;100.00;99661.66;4943494;28;20034;-68
2023/09/22 03:49:27;;;;;;;5.28;2.13;;;;;;;12.66;100.00;99671.09;4960529;28;20510;-68
2023/09/22 03:51:53;;;;;;;5.22;1.88;;;;;;;12.67;100.00;99666.69;4956822;28;20026;-68
2023/09/22 03:54:18;;;;;;;4.90;1.48;;;;;;;12.69;100.00;99669.88;4946053;28;20502;-69
2023/09/22 03:56:44;;;;;;;8.35;1.63;;;;;;;12.70;100.00;99670.69;4960597;28;20101;-69
2023/09/22 03:59:11;;;;;;;4.20;1.50;;;;;;;12.71;100.00;99667.88;4957414;28;20034;-69
2023/09/22 04:01:37;;;;;;;3.25;1.25;;;;;;;12.74;100.00;99677.91;4959649;28;20039;-68
2023/09/22 04:04:03;;;;;;;8.50;1.48;;;;;;;12.71;100.00;99677.50;4956139;28;20148;-69
2023/09/22 04:06:30;;;;;;;7.15;1.90;;;;;;;12.71;100.00;99678.28;4958876;28;20520;-67
2023/09/22 04:08:56;;;;;;;4.85;1.55;;;;;;;12.75;100.00;99679.50;4961390;28;20058;-68
2023/09/22 04:11:22;;;;;;;3.20;1.63;;;;;;;12.73;100.00;99685.91;4956219;28;20046;-68
2023/09/22 04:13:48;;;;;;;6.30;1.35;;;;;;;12.70;100.00;99681.09;4957885;28;20031;-69
2023/09/22 04:16:14;;;;;;;6.20;1.33;;;;;;;12.68;100.00;99677.88;4956813;28;20125;-68
2023/09/22 04:18:39;;;;;;;6.13;1.40;;;;;;;12.69;100.00;99680.28;4961543;28;20045;-68
2023/09/22 04:21:07;;;;;;;2.03;0.90;;;;;;;12.70;100.00;99681.91;4955948;28;20062;-69
2023/09/22 04:23:34;;;;;;;4.07;1.40;;;;;;;12.77;100.00;99687.09;4972929;28;20034;-68
2023/09/22 04:26:09;;;;;;;5.00;1.20;;;;;;;12.74;100.00;99693.50;4955382;28;20034;-68
2023/09/22 04:28:35;;;;;;;8.63;1.45;;;;;;;12.74;100.00;99693.50;4972416;28;20054;-68
2023/09/22 04:31:01;;;;;;;7.90;1.40;;;;;;;12.74;100.00;99700.50;4974761;28;20568;-68
2023/09/22 04:33:26;;;;;;;4.43;1.23;;;;;;;12.75;100.00;99704.69;4955188;28;20045;-68
2023/09/22 04:35:52;;;;;;;3.33;1.17;;;;;;;12.82;100.00;99705.53;4974312;28;20035;-68
2023/09/22 04:38:18;;;;;;;3.28;1.00;;;;;;;12.82;100.00;99708.91;4974836;28;20027;-68
2023/09/22 04:40:44;;;;;;;4.80;1.33;;;;;;;12.90;100.00;99702.72;4975648;28;20622;-68
2023/09/22 04:43:13;;;;;;;2.30;0.93;;;;;;;12.90;100.00;99715.75;4975532;28;20039;-68
2023/09/22 04:45:40;;;;;;;7.55;1.30;;;;;;;12.97;100.00;99706.16;4974202;28;20049;-68
2023/09/22 04:48:10;;;;;;;5.22;1.20;;;;;;;12.96;100.00;99714.16;4973487;28;20141;-68
2023/09/22 04:50:36;;;;;;;2.63;0.80;;;;;;;12.93;100.00;99720.56;4975355;28;20034;-68
2023/09/22 04:53:04;;;;;;;3.78;1.10;;;;;;;12.89;100.00;99714.16;4954993;28;20224;-68
2023/09/22 04:55:31;;;;;;;8.75;1.48;;;;;;;12.95;100.00;99712.56;4975337;28;20038;-69
2023/09/22 04:57:56;;;;;;;3.63;1.02;;;;;;;12.96;100.00;99709.78;4959789;28;21992;-68
2023/09/22 05:00:24;;;;;;;4.78;1.25;;;;;;;12.89;100.00;99706.34;4956130;28;20047;-68
2023/09/22 05:02:51;;;;;;;5.07;1.20;;;;;;;12.83;100.00;99712.34;4970249;28;20046;-68
2023/09/22 05:05:19;;;;;;;3.88;1.55;;;;;;;12.85;100.00;99708.53;4956218;28;20061;-68
2023/09/22 05:07:47;;;;;;;3.75;1.13;;;;;;;12.87;100.00;99712.75;4950464;28;20045;-68
2023/09/22 05:10:13;;;;;;;5.40;1.25;;;;;;;12.90;100.00;99720.16;4955690;28;20496;-68
2023/09/22 05:12:38;;;;;;;8.32;1.40;;;;;;;12.94;100.00;99721.34;4959380;28;20101;-68
2023/09/22 05:15:05;;;;;;;5.10;1.65;;;;;;;12.89;100.00;99728.97;4974383;28;20039;-68
2023/09/22 05:17:30;;;;;;;3.80;1.38;;;;;;;12.84;100.00;99724.34;4972506;28;20120;-68
2023/09/22 05:19:56;;;;;;;5.50;1.65;;;;;;;12.80;100.00;99728.34;4974806;28;20042;-68
2023/09/22 05:22:22;;;;;;;5.28;1.10;;;;;;;12.77;100.00;99733.91;4972748;28;20752;-68
2023/09/22 05:24:48;;;;;;;3.22;1.25;;;;;;;12.73;100.00;99733.50;4959021;28;20058;-67
2023/09/22 05:27:15;;;;;;;8.48;1.40;;;;;;;12.73;100.00;99733.50;4938808;28;20082;-68
2023/09/22 05:29:41;;;;;;;4.78;1.20;;;;;;;12.74;100.00;99745.53;4956851;28;20047;-68
2023/09/22 05:32:08;;;;;;;2.70;0.90;;;;;;;12.71;100.00;99735.50;4954574;28;20039;-68
2023/09/22 05:34:33;;;;;;;3.90;1.60;;;;;;;12.69;100.00;99736.72;4975295;28;20031;-68
2023/09/22 05:37:00;;;;;;;6.80;1.20;;;;;;;12.69;100.00;99741.91;4975608;28;20549;-68
2023/09/22 05:39:26;;;;;;;4.38;1.58;;;;;;;12.67;100.00;99736.91;4976379;28;20050;-68
2023/09/22 05:41:52;;;;;;;3.65;1.10;;;;;;;12.75;100.00;99736.75;4976475;28;20524;-68
2023/09/22 05:44:17;;;;;;;5.93;1.23;;;;;;;12.70;100.00;99740.91;4974759;28;20062;-68
2023/09/22 05:46:44;;;;;;;5.15;1.65;;;;;;;12.68;100.00;99742.88;4960559;28;20047;-68
2023/09/22 05:49:14;;;;;;;5.82;1.15;;;;;;;12.76;100.00;99745.34;4975424;28;20402;-68
2023/09/22 05:51:43;;;;;;;3.95;1.30;;;;;;;12.73;100.00;99745.72;4953452;28;20085;-68
2023/09/22 05:54:08;;;;;;;6.55;1.45;;;;;;;12.70;100.00;99752.13;4974817;28;20038;-68
2023/09/22 05:56:39;;;;;;;2.63;1.10;;;;;;;12.69;100.00;99763.50;4977599;28;20548;-68
2023/09/22 05:59:06;;;;;;;4.18;1.17;;;;;;;12.62;100.00;99757.47;4954828;28;20046;-68
2023/09/22 06:01:35;;;;;;;5.68;1.38;;;;;;;12.59;100.00;99756.06;4956631;28;20054;-68
2023/09/22 06:04:01;;;;;;;5.80;1.50;;;;;;;12.59;100.00;99755.28;4971624;28;20038;-68
2023/09/22 06:06:27;;;;;;;2.38;1.10;;;;;;;12.59;100.00;99763.88;4971026;28;20038;-68
2023/09/22 06:08:52;;;;;;;3.50;1.58;;;;;;;12.59;100.00;99769.06;4956444;28;20039;-68
2023/09/22 06:11:18;;;;;;;2.28;1.20;;;;;;;12.61;100.00;99772.28;4969273;28;20043;-68
2023/09/22 06:13:44;;;;;;;6.20;1.42;;;;;;;12.64;100.00;99763.31;4971977;28;20038;-68
2023/09/22 06:16:09;;;;;;;4.18;1.15;;;;;;;12.73;100.00;99761.31;4977214;28;20037;-68
2023/09/22 06:18:37;;;;;;;3.45;1.27;;;;;;;12.78;100.00;99766.75;4973720;28;20737;-68
2023/09/22 06:21:03;;;;;;;4.45;1.50;;;;;;;12.83;100.00;99754.75;4974563;28;20057;-68
2023/09/22 06:23:28;;;;;;;7.03;1.40;;;;;;;12.89;100.00;99754.97;4952989;28;20485;-68
2023/09/22 06:26:03;;;;;;;6.93;1.30;;;;;;;12.85;100.00;99757.16;4970238;28;20077;-68
2023/09/22 06:28:32;;;;;;;2.13;1.10;;;;;;;12.88;100.00;99758.56;4968508;28;20441;-68
2023/09/22 06:31:02;;;;;;;2.22;1.17;;;;;;;12.92;100.00;99757.19;4952372;28;20062;-68
2023/09/22 06:33:28;;;;;;;4.60;1.42;;;;;;;13.18;100.00;99762.44;4975966;28;20122;-68
2023/09/22 06:35:58;;;;;;;6.68;1.30;;;;;;;13.72;100.00;99757.28;4943785;28;20099;-68
2023/09/22 06:38:23;;;;;;;4.38;1.40;;;;;;;14.35;97.87;99762.78;4955600;28;20069;-68
2023/09/22 06:40:50;;;;;;;6.90;1.13;;;;;;;14.88;95.58;99763.56;4969135;28;20133;-68
2023/09/22 06:43:16;;;;;;;6.30;1.20;;;;;;;15.52;92.38;99759.94;4973795;28;20039;-68
2023/09/22 06:45:42;;;;;;;3.13;1.00;;;;;;;15.96;88.56;99767.84;4959246;28;20054;-68
2023/09/22 06:48:07;;;;;;;5.43;1.20;;;;;;;16.46;85.34;99764.25;4953531;28;20066;-68
2023/09/22 06:50:34;;;;;;;8.70;1.55;;;;;;;16.47;83.12;99774.53;4957114;28;20043;-68
2023/09/22 06:53:00;;;;;;;3.63;1.00;;;;;;;16.61;81.79;99769.13;4974228;28;20042;-68
2023/09/22 06:55:25;;;;;;;5.25;1.05;;;;;;;17.03;80.70;99762.16;4961567;28;20039;-68
2023/09/22 06:57:52;;;;;;;5.72;1.83;;;;;;;17.03;79.50;99771.84;4975769;28;20042;-69
2023/09/22 07:00:23;;;;;;;2.03;1.15;;;;;;;17.24;77.62;99768.69;4974271;28;20039;-68
2023/09/22 07:02:49;;;;;;;4.75;0.85;;;;;;;16.71;79.32;99772.03;4970408;28;20046;-68
2023/09/22 07:05:15;;;;;;;3.63;1.52;;;;;;;16.15;83.34;99774.66;4973567;28;20037;-68
2023/09/22 07:07:40;;;;;;;3.58;1.00;;;;;;;15.89;84.20;99780.94;4981888;28;20515;-68
2023/09/22 07:10:09;;;;;;;2.58;1.17;;;;;;;16.32;82.82;99774.88;4976115;28;20085;-68
2023/09/22 07:12:38;;;;;;;6.20;0.90;;;;;;;17.04;80.83;99766.34;4957990;28;20038;-68
2023/09/22 07:15:05;;;;;;;4.22;1.20;;;;;;;17.83;76.40;99773.97;4976031;28;20031;-68
2023/09/22 07:17:31;;;;;;;3.47;1.55;;;;;;;18.17;74.11;99789.97;4955652;28;20155;-68
2023/09/22 07:19:57;;;;;;;4.47;1.00;;;;;;;18.57;72.15;99770.81;4978202;28;20126;-68
2023/09/22 07:22:23;;;;;;;4.75;0.90;;;;;;;18.52;71.95;99783.84;4977984;28;20038;-68
2023/09/22 07:24:51;;;;;;;3.13;0.60;;;;;;;18.42;70.73;99791.50;4946532;28;20490;-68
2023/09/22 07:27:17;;;;;;;3.45;0.80;;;;;;;18.54;69.99;99789.66;4980060;28;20129;-68
2023/09/22 07:29:43;;;;;;;2.30;0.75;;;;;;;18.60;71.59;99791.34;4979531;28;20034;-68
2023/09/22 07:32:08;;;;;;;6.22;1.00;;;;;;;18.83;69.46;99798.38;4974632;28;20045;-69
2023/09/22 07:34:34;;;;;;;5.20;0.90;;;;;;;18.49;70.22;99786.94;4957282;28;20125;-68
2023/09/22 07:37:00;;;;;;;6.00;0.93;;;;;;;18.85;69.54;99801.59;4973216;28;20042;-68
2023/09/22 07:39:25;;;;;;;3.72;0.70;;;;;;;18.99;68.50;99812.59;4975262;28;20045;-68
2023/09/22 07:41:51;;;;;;;2.22;0.73;;;;;;;19.34;67.33;99808.97;4975897;28;20382;-68
2023/09/22 07:44:21;;;;;;;1.98;0.60;;;;;;;19.50;65.34;99812.66;4957273;28;20035;-68
2023/09/22 07:46:48;;;;;;;2.13;1.10;;;;;;;18.89;67.31;99809.75;4974511;28;20058;-70
2023/09/22 07:49:14;;;;;;;2.75;0.70;;;;;;;19.01;66.88;99817.63;4976124;28;20033;-68
2023/09/22 07:51:39;;;;;;;7.68;0.88;;;;;;;19.64;65.23;99815.75;4958216;28;20839;-68
2023/09/22 07:54:05;;;;;;;1.92;0.70;;;;;;;19.74;65.47;99826.47;4951754;28;20303;-68
2023/09/22 07:56:32;;;;;;;9.13;0.80;;;;;;;19.85;65.34;99832.66;4970449;28;20069;-68
2023/09/22 07:58:58;;;;;;;2.22;0.70;;;;;;;19.45;65.99;99829.13;4976343;28;20046;-69
2023/09/22 08:01:24;;;;;;;3.85;0.73;;;;;;;19.52;64.43;99831.63;4972811;28;20041;-68
2023/09/22 08:03:51;;;;;;;2.88;0.70;;;;;;;19.88;64.63;99839.31;4974017;28;20068;-68
2023/09/22 08:06:17;;;;;;;3.08;0.60;;;;;;;20.02;61.79;99830.84;4958382;28;20043;-68
2023/09/22 08:08:43;;;;;;;1.48;0.60;;;;;;;20.23;61.63;99834.53;4971816;28;20102;-68
2023/09/22 08:11:08;;;;;;;2.65;0.77;;;;;;;20.20;60.99;99834.22;4978793;28;20041;-68
2023/09/22 08:13:35;;;;;;;3.22;0.63;;;;;;;20.12;61.13;99837.28;4977414;28;22006;-67
2023/09/22 08:16:04;;;;;;;5.38;1.60;;;;;;;20.52;59.91;99841.47;4960195;28;20412;-68
2023/09/22 08:18:34;;;;;;;5.97;0.38;;;;;;;20.65;59.00;99849.03;4972143;28;20110;-68
2023/09/22 08:20:59;;;;;;;3.33;0.60;;;;;;;20.57;59.66;99849.44;4955370;28;20494;-67
2023/09/22 08:23:25;;;;;;;4.35;1.63;;;;;;;20.11;59.38;99849.63;4976631;28;20049;-68
2023/09/22 08:25:56;;;;;;;2.83;0.75;;;;;;;20.41;62.07;99854.50;4977399;28;20063;-68
2023/09/22 08:28:23;;;;;;;5.40;0.70;;;;;;;20.81;59.12;99850.00;4959295;28;20537;-67
2023/09/22 08:30:49;;;;;;;1.13;0.40;;;;;;;20.42;58.51;99853.47;4974862;28;20077;-67
2023/09/22 08:33:15;;;;;;;1.00;0.40;;;;;;;20.07;59.51;99853.00;4974838;28;20425;-68
2023/09/22 08:35:41;;;;;;;1.42;0.40;;;;;;;19.62;60.97;99855.44;4958089;28;20068;-68
2023/09/22 08:38:07;;;;;;;2.40;0.50;;;;;;;19.48;62.47;99859.41;4959067;28;20043;-67
2023/09/22 08:40:32;;;;;;;1.83;0.70;;;;;;;19.23;63.00;99852.69;4956852;28;20145;-68
2023/09/22 08:43:00;;;;;;;2.35;0.82;;;;;;;18.67;64.90;99862.09;4977572;28;20039;-67
2023/09/22 08:45:26;;;;;;;5.30;0.90;;;;;;;18.54;67.74;99855.28;4950386;28;20454;-67
2023/09/22 08:47:51;;;;;;;2.30;1.00;;;;;;;19.22;66.13;99861.59;4971366;28;20086;-67
2023/09/22 08:50:19;;;;;;;4.72;1.30;;;;;;;19.93;63.88;99855.13;4977961;28;20093;-68
2023/09/22 08:52:48;;;;;;;1.52;0.90;;;;;;;20.22;63.49;99847.94;4976971;28;20051;-68
2023/09/22 08:55:15;;;;;;;3.45;0.70;;;;;;;20.47;60.90;99846.66;4962381;28;20420;-67
2023/09/22 08:57:45;;;;;;;6.40;1.02;;;;;;;19.96;60.52;99842.31;4952691;28;20065;-67
2023/09/22 09:00:31;;;;;;;4.65;0.70;;;;;;;20.34;61.76;99838.09;4956135;28;20050;-67
2023/09/22 09:03:01;;;;;;;1.85;0.47;;;;;;;20.72;61.27;99828.59;4954435;28;20532;-67
2023/09/22 09:05:33;;;;;;;4.28;0.80;;;;;;;20.95;60.17;99838.03;4975587;28;20073;-67
2023/09/22 09:08:16;;;;;;;2.97;0.70;;;;;;;20.53;58.63;99833.34;4972271;28;20089;-67
2023/09/22 09:10:43;;;;;;;;;;;;;;;20.62;62.09;99836.34;4960300;28;20467;-67
2023/09/22 09:13:13;;;;;;;2.88;0.73;;;;;;;19.68;60.78;99831.84;4975983;28;19924;-68
2023/09/22 09:15:50;;;;;;;4.07;0.52;;;;;;;19.45;62.02;99830.97;4951684;28;20043;-67
2023/09/22 09:18:18;;;;;;;0.95;0.40;;;;;;;19.08;64.49;99833.22;4974644;28;20078;-68
2023/09/22 09:20:45;;;;;;;1.73;0.57;;;;;;;18.79;63.91;99838.44;4975923;28;20034;-67
2023/09/22 09:23:21;;;;;;;2.38;0.70;;;;;;;19.18;63.22;99834.19;4957826;28;20336;-67
2023/09/22 09:25:54;;;;;;;1.38;0.73;;;;;;;19.80;62.93;99827.34;4974108;28;20497;-67
2023/09/22 09:28:20;;;;;;;;;;;;;;;19.75;61.10;99832.53;4952771;28;20054;-67
2023/09/22 09:30:51;;;;;;;3.42;0.68;;;;;;;19.67;62.29;99827.66;4973616;28;19969;-68
2023/09/22 09:33:19;;;;;;;5.35;0.75;;;;;;;19.77;60.38;99830.44;4970700;28;20039;-67
2023/09/22 09:35:45;;;;;;;2.50;0.60;;;;;;;19.08;60.71;99833.22;4971850;28;20485;-67
2023/09/22 09:38:12;;;;;;;8.13;1.40;;;;;;;18.51;63.24;99842.59;4971816;28;20046;-68
2023/09/22 09:40:38;;;;;;;1.23;0.57;;;;;;;18.29;63.81;99830.09;4970761;28;20093;-67
2023/09/22 09:43:10;;;;;;;2.05;0.70;;;;;;;18.32;64.56;99841.94;4955679;28;20042;-67
2023/09/22 09:45:42;;;;;;;3.83;0.80;;;;;;;18.77;63.15;99832.63;4971246;28;20054;-67
2023/09/22 09:48:10;;;;;;;3.07;0.60;;;;;;;19.02;62.10;99832.31;4971293;28;20041;-68
2023/09/22 09:50:38;;;;;;;4.63;1.02;;;;;;;19.08;63.21;99839.28;4973330;28;21005;-67
2023/09/22 09:53:22;;;;;;;2.63;0.55;;;;;;;19.25;60.07;99837.50;4953317;28;20047;-68
2023/09/22 09:55:52;;;;;;;3.83;0.70;;;;;;;19.26;59.25;99839.06;4952947;28;20031;-68
2023/09/22 09:58:20;;;;;;;2.03;0.68;;;;;;;19.04;59.32;99836.34;4970677;28;20061;-68
2023/09/22 10:00:46;;;;;;;3.88;0.90;;;;;;;19.27;62.13;99847.78;4974709;28;20082;-68
2023/09/22 10:03:13;;;;;;;4.32;0.82;;;;;;;19.41;59.57;99837.75;4969781;28;20038;-69
2023/09/22 10:05:40;;;;;;;2.47;0.82;;;;;;;19.14;58.95;99848.84;4970258;28;20030;-68
2023/09/22 10:08:07;;;;;;;2.28;0.60;;;;;;;18.91;60.32;99846.31;4972430;28;20446;-67
2023/09/22 10:10:35;;;;;;;1.98;0.63;;;;;;;19.02;59.78;99840.22;4978682;28;20551;-68
2023/09/22 10:13:00;;;;;;;2.13;0.77;;;;;;;19.05;59.56;99845.78;4979045;28;20043;-68
2023/09/22 10:15:52;;;;;;;4.70;0.65;;;;;;;19.37;59.04;99855.03;4978274;28;20048;-68
2023/09/22 10:18:18;;;;;;;2.40;0.60;;;;;;;19.50;58.57;99852.09;4976733;28;20514;-68
2023/09/22 10:20:45;;;;;;;3.75;1.02;;;;;;;19.43;56.84;99856.69;4963450;28;20049;-68
2023/09/22 10:23:22;;;;;;;6.47;1.00;;;;;;;19.12;59.53;99877.19;4973265;28;20062;-68
2023/09/22 10:26:14;;;;;;;3.72;0.75;;;;;;;18.99;60.32;99873.00;4979971;28;20053;-68
2023/09/22 10:28:40;;;;;;;3.92;0.65;;;;;;;18.89;58.66;99872.00;4957816;28;20038;-68
2023/09/22 10:31:05;;;;;;;4.00;0.50;;;;;;;18.78;59.72;99871.78;4971061;28;20077;-67
2023/09/22 10:33:32;;;;;;;3.42;1.05;;;;;;;18.85;58.66;99879.53;4956399;28;20049;-67
2023/09/22 10:35:58;;;;;;;1.88;0.57;;;;;;;18.74;59.45;99882.97;4960909;28;20031;-67
2023/09/22 10:38:24;;;;;;;1.52;0.60;;;;;;;19.02;60.46;99882.25;4943372;28;20106;-67
2023/09/22 10:41:02;;;;;;;4.68;0.70;;;;;;;19.21;60.83;99880.22;4976235;28;20092;-67
2023/09/22 10:43:29;;;;;;;4.85;0.70;;;;;;;19.13;60.55;99885.88;4952579;28;20051;-67
2023/09/22 10:45:55;;;;;;;3.40;0.70;;;;;;;19.03;60.95;99889.88;4975961;28;20436;-68
2023/09/22 10:48:21;;;;;;;7.63;0.80;;;;;;;19.04;61.12;99891.50;4968265;28;20459;-67
2023/09/22 10:50:50;;;;;;;3.08;0.60;;;;;;;18.95;58.89;99899.97;4959704;28;20113;-67
2023/09/22 10:53:16;;;;;;;2.28;0.73;;;;;;;18.94;60.08;99895.75;4968765;28;20042;-67
2023/09/22 10:55:44;;;;;;;2.97;0.70;;;;;;;18.96;59.31;99893.69;4958227;28;20026;-67
2023/09/22 10:58:15;;;;;;;2.15;0.60;;;;;;;19.14;59.37;99903.22;4956121;28;20035;-67
2023/09/22 11:00:54;;;;;;;3.70;0.70;;;;;;;19.07;58.46;99903.34;4970023;28;20070;-67
2023/09/22 11:03:20;;;;;;;2.80;0.70;;;;;;;19.00;58.66;99900.06;4947500;28;20137;-67
2023/09/22 11:05:59;;;;;;;2.05;0.52;;;;;;;18.87;57.43;99898.50;4966459;28;20517;-67
2023/09/22 11:08:25;;;;;;;1.83;0.50;;;;;;;18.75;58.70;99918.72;4966084;28;20043;-67
2023/09/22 11:10:52;;;;;;;1.38;0.52;;;;;;;18.72;58.95;99919.16;4971058;28;20043;-67
2023/09/22 11:13:19;;;;;;;1.63;0.65;;;;;;;18.74;58.66;99911.84;4937707;28;20069;-67
2023/09/22 11:15:57;;;;;;;1.20;0.50;;;;;;;18.90;59.67;99911.16;4955000;28;20034;-67
2023/09/22 11:18:33;;;;;;;3.53;0.75;;;;;;;19.05;61.55;99915.94;4974062;28;20046;-67
2023/09/22 11:21:02;;;;;;;2.72;0.70;;;;;;;19.39;59.38;99914.19;4972829;28;20066;-67
2023/09/22 11:23:28;;;;;;;2.38;0.68;;;;;;;19.31;58.24;99913.75;4968952;28;20521;-67
2023/09/22 11:26:07;;;;;;;4.70;1.50;;;;;;;19.58;58.96;99917.41;4976685;28;20051;-67
2023/09/22 11:28:34;;;;;;;2.33;1.20;;;;;;;19.72;57.31;99910.06;4953325;28;20821;-67
2023/09/22 11:31:08;;;;;;;2.33;0.60;;;;;;;19.36;57.78;99913.88;4973089;28;20034;-67